sensor_id;sensor_type;location;lat;lon;timestamp;P1;durP1;ratioP1;P2;durP2;ratioP2
41343;SDS011;27089;50.022;7.604;2023-02-23T00:00:23;75.03;;;36.73;;
41343;SDS011;27089;50.022;7.604;2023-02-23T00:02:53;71.10;;;34.93;;
41343;SDS011;27089;50.022;7.604;2023-02-23T00:05:23;54.20;;;29.17;;
41343;SDS011;27089;50.022;7.604;2023-02-23T00:07:50;57.90;;;28.63;;
41343;SDS011;27089;50.022;7.604;2023-02-23T00:10:18;42.40;;;22.80;;
41343;SDS011;27089;50.022;7.604;2023-02-23T00:12:48;42.90;;;25.07;;
41343;SDS011;27089;50.022;7.604;2023-02-23T00:15:17;37.43;;;22.37;;
41343;SDS011;27089;50.022;7.604;2023-02-23T00:17:44;34.80;;;21.40;;
41343;SDS011;27089;50.022;7.604;2023-02-23T00:20:12;34.53;;;20.77;;
41343;SDS011;27089;50.022;7.604;2023-02-23T00:22:41;37.17;;;21.30;;
41343;SDS011;27089;50.022;7.604;2023-02-23T00:25:08;32.97;;;20.83;;
41343;SDS011;27089;50.022;7.604;2023-02-23T00:27:37;33.40;;;20.10;;
41343;SDS011;27089;50.022;7.604;2023-02-23T00:30:11;28.27;;;19.37;;
41343;SDS011;27089;50.022;7.604;2023-02-23T00:32:39;32.63;;;19.20;;
41343;SDS011;27089;50.022;7.604;2023-02-23T00:35:06;28.13;;;18.40;;
41343;SDS011;27089;50.022;7.604;2023-02-23T00:37:41;30.07;;;19.27;;
41343;SDS011;27089;50.022;7.604;2023-02-23T00:40:10;25.47;;;17.07;;
41343;SDS011;27089;50.022;7.604;2023-02-23T00:42:39;27.97;;;16.97;;
41343;SDS011;27089;50.022;7.604;2023-02-23T00:45:06;26.87;;;17.77;;
41343;SDS011;27089;50.022;7.604;2023-02-23T00:47:38;40.37;;;21.93;;
41343;SDS011;27089;50.022;7.604;2023-02-23T00:50:08;36.23;;;21.30;;
41343;SDS011;27089;50.022;7.604;2023-02-23T00:52:40;38.93;;;21.97;;
41343;SDS011;27089;50.022;7.604;2023-02-23T00:55:08;29.90;;;17.83;;
41343;SDS011;27089;50.022;7.604;2023-02-23T00:57:37;25.60;;;17.33;;
41343;SDS011;27089;50.022;7.604;2023-02-23T01:00:04;25.00;;;15.97;;
41343;SDS011;27089;50.022;7.604;2023-02-23T01:02:42;24.00;;;15.40;;
41343;SDS011;27089;50.022;7.604;2023-02-23T01:05:09;25.17;;;15.70;;
41343;SDS011;27089;50.022;7.604;2023-02-23T01:07:37;27.00;;;15.80;;
41343;SDS011;27089;50.022;7.604;2023-02-23T01:10:05;29.07;;;17.43;;
41343;SDS011;27089;50.022;7.604;2023-02-23T01:12:44;28.60;;;17.67;;
41343;SDS011;27089;50.022;7.604;2023-02-23T01:15:12;29.23;;;17.70;;
41343;SDS011;27089;50.022;7.604;2023-02-23T01:17:39;29.03;;;17.70;;
41343;SDS011;27089;50.022;7.604;2023-02-23T01:20:10;31.83;;;20.10;;
41343;SDS011;27089;50.022;7.604;2023-02-23T01:22:42;32.63;;;19.63;;
41343;SDS011;27089;50.022;7.604;2023-02-23T01:25:09;29.53;;;19.53;;
41343;SDS011;27089;50.022;7.604;2023-02-23T01:27:37;32.30;;;19.33;;
41343;SDS011;27089;50.022;7.604;2023-02-23T01:30:05;30.40;;;18.50;;
41343;SDS011;27089;50.022;7.604;2023-02-23T01:32:34;28.87;;;17.87;;
41343;SDS011;27089;50.022;7.604;2023-02-23T01:35:02;26.53;;;17.67;;
41343;SDS011;27089;50.022;7.604;2023-02-23T01:37:34;27.97;;;17.80;;
41343;SDS011;27089;50.022;7.604;2023-02-23T01:40:05;29.93;;;17.70;;
41343;SDS011;27089;50.022;7.604;2023-02-23T01:42:37;29.27;;;17.40;;
41343;SDS011;27089;50.022;7.604;2023-02-23T01:47:53;24.47;;;16.30;;
41343;SDS011;27089;50.022;7.604;2023-02-23T01:50:26;24.33;;;14.80;;
41343;SDS011;27089;50.022;7.604;2023-02-23T01:52:57;24.60;;;15.00;;
41343;SDS011;27089;50.022;7.604;2023-02-23T01:55:25;20.70;;;14.23;;
41343;SDS011;27089;50.022;7.604;2023-02-23T01:57:55;25.63;;;15.17;;
41343;SDS011;27089;50.022;7.604;2023-02-23T02:00:27;22.77;;;14.67;;
41343;SDS011;27089;50.022;7.604;2023-02-23T02:02:56;21.80;;;14.00;;
41343;SDS011;27089;50.022;7.604;2023-02-23T02:05:26;21.93;;;14.40;;
41343;SDS011;27089;50.022;7.604;2023-02-23T02:07:56;21.30;;;14.53;;
41343;SDS011;27089;50.022;7.604;2023-02-23T02:10:26;20.33;;;13.77;;
41343;SDS011;27089;50.022;7.604;2023-02-23T02:13:08;23.13;;;13.97;;
41343;SDS011;27089;50.022;7.604;2023-02-23T02:15:42;20.60;;;12.70;;
41343;SDS011;27089;50.022;7.604;2023-02-23T02:18:27;20.57;;;12.77;;
41343;SDS011;27089;50.022;7.604;2023-02-23T02:24:16;20.00;;;12.90;;
41343;SDS011;27089;50.022;7.604;2023-02-23T02:27:10;19.27;;;13.40;;
41343;SDS011;27089;50.022;7.604;2023-02-23T02:29:54;20.80;;;13.10;;
41343;SDS011;27089;50.022;7.604;2023-02-23T02:33:06;21.67;;;12.83;;
41343;SDS011;27089;50.022;7.604;2023-02-23T02:38:59;19.07;;;12.33;;
41343;SDS011;27089;50.022;7.604;2023-02-23T02:41:35;18.97;;;13.97;;
41343;SDS011;27089;50.022;7.604;2023-02-23T02:44:13;20.00;;;13.13;;
41343;SDS011;27089;50.022;7.604;2023-02-23T02:46:45;20.80;;;13.27;;
41343;SDS011;27089;50.022;7.604;2023-02-23T02:49:14;25.97;;;13.80;;
41343;SDS011;27089;50.022;7.604;2023-02-23T02:51:53;20.83;;;12.90;;
41343;SDS011;27089;50.022;7.604;2023-02-23T02:54:26;18.50;;;12.93;;
41343;SDS011;27089;50.022;7.604;2023-02-23T02:56:57;19.97;;;12.90;;
41343;SDS011;27089;50.022;7.604;2023-02-23T02:59:28;20.63;;;12.80;;
41343;SDS011;27089;50.022;7.604;2023-02-23T03:02:16;20.07;;;12.77;;
41343;SDS011;27089;50.022;7.604;2023-02-23T03:05:06;20.80;;;13.13;;
41343;SDS011;27089;50.022;7.604;2023-02-23T03:07:57;20.53;;;13.67;;
41343;SDS011;27089;50.022;7.604;2023-02-23T03:10:50;19.27;;;13.07;;
41343;SDS011;27089;50.022;7.604;2023-02-23T03:13:41;18.17;;;12.07;;
41343;SDS011;27089;50.022;7.604;2023-02-23T03:16:36;21.50;;;13.63;;
41343;SDS011;27089;50.022;7.604;2023-02-23T03:19:31;19.63;;;12.73;;
41343;SDS011;27089;50.022;7.604;2023-02-23T03:22:21;21.13;;;13.07;;
41343;SDS011;27089;50.022;7.604;2023-02-23T03:25:10;20.17;;;13.03;;
41343;SDS011;27089;50.022;7.604;2023-02-23T03:28:03;22.70;;;12.67;;
41343;SDS011;27089;50.022;7.604;2023-02-23T03:30:53;16.73;;;11.90;;
41343;SDS011;27089;50.022;7.604;2023-02-23T03:33:45;16.53;;;11.50;;
41343;SDS011;27089;50.022;7.604;2023-02-23T03:36:36;17.57;;;11.23;;
41343;SDS011;27089;50.022;7.604;2023-02-23T03:39:25;19.63;;;12.03;;
41343;SDS011;27089;50.022;7.604;2023-02-23T03:42:17;18.17;;;12.03;;
41343;SDS011;27089;50.022;7.604;2023-02-23T03:45:05;16.17;;;11.90;;
41343;SDS011;27089;50.022;7.604;2023-02-23T03:47:53;19.10;;;12.27;;
41343;SDS011;27089;50.022;7.604;2023-02-23T03:50:40;17.23;;;11.57;;
41343;SDS011;27089;50.022;7.604;2023-02-23T03:53:30;16.67;;;12.27;;
41343;SDS011;27089;50.022;7.604;2023-02-23T03:56:21;19.50;;;12.00;;
41343;SDS011;27089;50.022;7.604;2023-02-23T03:59:09;20.53;;;12.53;;
41343;SDS011;27089;50.022;7.604;2023-02-23T04:01:57;17.00;;;11.17;;
41343;SDS011;27089;50.022;7.604;2023-02-23T04:04:43;17.60;;;11.20;;
41343;SDS011;27089;50.022;7.604;2023-02-23T04:07:29;18.77;;;12.40;;
41343;SDS011;27089;50.022;7.604;2023-02-23T04:10:16;19.23;;;11.53;;
41343;SDS011;27089;50.022;7.604;2023-02-23T04:13:02;33.43;;;20.40;;
41343;SDS011;27089;50.022;7.604;2023-02-23T04:15:42;28.30;;;18.40;;
41343;SDS011;27089;50.022;7.604;2023-02-23T04:18:19;31.40;;;22.40;;
41343;SDS011;27089;50.022;7.604;2023-02-23T04:20:48;46.90;;;33.03;;
41343;SDS011;27089;50.022;7.604;2023-02-23T04:23:15;20.17;;;12.27;;
41343;SDS011;27089;50.022;7.604;2023-02-23T04:25:42;20.70;;;12.80;;
41343;SDS011;27089;50.022;7.604;2023-02-23T04:28:09;17.97;;;11.27;;
41343;SDS011;27089;50.022;7.604;2023-02-23T04:30:36;14.17;;;9.70;;
41343;SDS011;27089;50.022;7.604;2023-02-23T04:33:03;17.27;;;9.20;;
41343;SDS011;27089;50.022;7.604;2023-02-23T04:35:32;14.83;;;9.83;;
41343;SDS011;27089;50.022;7.604;2023-02-23T04:37:59;14.03;;;9.43;;
41343;SDS011;27089;50.022;7.604;2023-02-23T04:40:26;14.33;;;9.73;;
41343;SDS011;27089;50.022;7.604;2023-02-23T04:42:54;15.47;;;9.87;;
41343;SDS011;27089;50.022;7.604;2023-02-23T04:45:21;14.17;;;9.70;;
41343;SDS011;27089;50.022;7.604;2023-02-23T04:47:49;15.87;;;9.87;;
41343;SDS011;27089;50.022;7.604;2023-02-23T04:50:16;17.00;;;10.37;;
41343;SDS011;27089;50.022;7.604;2023-02-23T04:52:45;16.07;;;10.00;;
41343;SDS011;27089;50.022;7.604;2023-02-23T04:55:15;14.47;;;9.57;;
41343;SDS011;27089;50.022;7.604;2023-02-23T04:57:45;18.13;;;10.90;;
41343;SDS011;27089;50.022;7.604;2023-02-23T05:00:13;17.63;;;11.13;;
41343;SDS011;27089;50.022;7.604;2023-02-23T05:02:41;19.80;;;13.77;;
41343;SDS011;27089;50.022;7.604;2023-02-23T05:05:09;16.10;;;11.37;;
41343;SDS011;27089;50.022;7.604;2023-02-23T05:07:36;17.60;;;12.03;;
41343;SDS011;27089;50.022;7.604;2023-02-23T05:10:05;19.03;;;11.93;;
41343;SDS011;27089;50.022;7.604;2023-02-23T05:12:34;19.37;;;11.83;;
41343;SDS011;27089;50.022;7.604;2023-02-23T05:15:01;24.03;;;12.87;;
41343;SDS011;27089;50.022;7.604;2023-02-23T05:17:28;19.67;;;12.03;;
41343;SDS011;27089;50.022;7.604;2023-02-23T05:19:55;17.10;;;11.37;;
41343;SDS011;27089;50.022;7.604;2023-02-23T05:22:22;19.13;;;12.50;;
41343;SDS011;27089;50.022;7.604;2023-02-23T05:24:49;20.57;;;12.10;;
41343;SDS011;27089;50.022;7.604;2023-02-23T05:27:17;21.80;;;12.90;;
41343;SDS011;27089;50.022;7.604;2023-02-23T05:29:44;20.17;;;13.30;;
41343;SDS011;27089;50.022;7.604;2023-02-23T05:32:11;20.43;;;12.20;;
41343;SDS011;27089;50.022;7.604;2023-02-23T05:34:39;20.17;;;12.03;;
41343;SDS011;27089;50.022;7.604;2023-02-23T05:37:06;15.67;;;10.90;;
41343;SDS011;27089;50.022;7.604;2023-02-23T05:39:33;16.50;;;11.10;;
41343;SDS011;27089;50.022;7.604;2023-02-23T05:42:00;13.80;;;9.97;;
41343;SDS011;27089;50.022;7.604;2023-02-23T05:44:28;15.27;;;10.30;;
41343;SDS011;27089;50.022;7.604;2023-02-23T05:46:55;17.87;;;11.07;;
41343;SDS011;27089;50.022;7.604;2023-02-23T05:49:22;15.17;;;10.27;;
41343;SDS011;27089;50.022;7.604;2023-02-23T05:51:49;16.90;;;10.83;;
41343;SDS011;27089;50.022;7.604;2023-02-23T05:54:16;18.37;;;10.73;;
41343;SDS011;27089;50.022;7.604;2023-02-23T05:56:43;17.87;;;10.93;;
41343;SDS011;27089;50.022;7.604;2023-02-23T05:59:10;15.70;;;10.10;;
41343;SDS011;27089;50.022;7.604;2023-02-23T06:01:39;18.80;;;11.33;;
41343;SDS011;27089;50.022;7.604;2023-02-23T06:04:06;17.40;;;10.70;;
41343;SDS011;27089;50.022;7.604;2023-02-23T06:06:33;16.43;;;11.27;;
41343;SDS011;27089;50.022;7.604;2023-02-23T06:09:00;16.67;;;11.57;;
41343;SDS011;27089;50.022;7.604;2023-02-23T06:11:28;18.30;;;11.27;;
41343;SDS011;27089;50.022;7.604;2023-02-23T06:13:56;17.23;;;12.07;;
41343;SDS011;27089;50.022;7.604;2023-02-23T06:16:24;17.73;;;12.00;;
41343;SDS011;27089;50.022;7.604;2023-02-23T06:18:55;15.77;;;11.37;;
41343;SDS011;27089;50.022;7.604;2023-02-23T06:21:22;21.67;;;13.13;;
41343;SDS011;27089;50.022;7.604;2023-02-23T06:23:49;20.23;;;12.60;;
41343;SDS011;27089;50.022;7.604;2023-02-23T06:26:18;20.63;;;13.33;;
41343;SDS011;27089;50.022;7.604;2023-02-23T06:28:45;20.73;;;12.50;;
41343;SDS011;27089;50.022;7.604;2023-02-23T06:31:12;19.33;;;12.90;;
41343;SDS011;27089;50.022;7.604;2023-02-23T06:33:39;22.43;;;14.87;;
41343;SDS011;27089;50.022;7.604;2023-02-23T06:36:08;21.03;;;13.33;;
41343;SDS011;27089;50.022;7.604;2023-02-23T06:38:35;20.57;;;13.43;;
41343;SDS011;27089;50.022;7.604;2023-02-23T06:41:05;21.10;;;13.73;;
41343;SDS011;27089;50.022;7.604;2023-02-23T06:43:33;24.77;;;14.73;;
41343;SDS011;27089;50.022;7.604;2023-02-23T06:46:00;24.10;;;15.67;;
41343;SDS011;27089;50.022;7.604;2023-02-23T06:48:27;23.30;;;15.87;;
41343;SDS011;27089;50.022;7.604;2023-02-23T06:50:56;20.97;;;14.67;;
41343;SDS011;27089;50.022;7.604;2023-02-23T06:53:25;22.20;;;14.30;;
41343;SDS011;27089;50.022;7.604;2023-02-23T06:55:52;23.13;;;14.93;;
41343;SDS011;27089;50.022;7.604;2023-02-23T06:58:20;24.77;;;15.33;;
41343;SDS011;27089;50.022;7.604;2023-02-23T07:00:47;25.17;;;15.97;;
41343;SDS011;27089;50.022;7.604;2023-02-23T07:03:14;23.27;;;15.20;;
41343;SDS011;27089;50.022;7.604;2023-02-23T07:05:43;23.93;;;15.57;;
41343;SDS011;27089;50.022;7.604;2023-02-23T07:08:10;24.63;;;15.93;;
41343;SDS011;27089;50.022;7.604;2023-02-23T07:10:38;23.87;;;14.80;;
41343;SDS011;27089;50.022;7.604;2023-02-23T07:13:05;22.63;;;14.60;;
41343;SDS011;27089;50.022;7.604;2023-02-23T07:15:34;23.93;;;15.30;;
41343;SDS011;27089;50.022;7.604;2023-02-23T07:18:02;22.70;;;14.27;;
41343;SDS011;27089;50.022;7.604;2023-02-23T07:20:29;25.57;;;14.50;;
41343;SDS011;27089;50.022;7.604;2023-02-23T07:22:57;24.07;;;15.23;;
41343;SDS011;27089;50.022;7.604;2023-02-23T07:25:24;21.50;;;14.47;;
41343;SDS011;27089;50.022;7.604;2023-02-23T07:27:53;21.00;;;13.93;;
41343;SDS011;27089;50.022;7.604;2023-02-23T07:30:20;23.57;;;14.83;;
41343;SDS011;27089;50.022;7.604;2023-02-23T07:32:48;21.90;;;14.10;;
41343;SDS011;27089;50.022;7.604;2023-02-23T07:35:16;19.67;;;13.57;;
41343;SDS011;27089;50.022;7.604;2023-02-23T07:37:43;22.70;;;14.60;;
41343;SDS011;27089;50.022;7.604;2023-02-23T07:40:10;22.43;;;14.23;;
41343;SDS011;27089;50.022;7.604;2023-02-23T07:42:38;20.17;;;13.53;;
41343;SDS011;27089;50.022;7.604;2023-02-23T07:45:07;22.97;;;14.00;;
41343;SDS011;27089;50.022;7.604;2023-02-23T07:47:34;20.30;;;13.73;;
41343;SDS011;27089;50.022;7.604;2023-02-23T07:50:03;20.27;;;13.20;;
41343;SDS011;27089;50.022;7.604;2023-02-23T07:52:34;21.83;;;14.00;;
41343;SDS011;27089;50.022;7.604;2023-02-23T07:55:02;18.13;;;13.47;;
41343;SDS011;27089;50.022;7.604;2023-02-23T07:57:29;22.13;;;13.37;;
41343;SDS011;27089;50.022;7.604;2023-02-23T07:59:56;23.33;;;13.20;;
41343;SDS011;27089;50.022;7.604;2023-02-23T08:02:24;18.47;;;12.70;;
41343;SDS011;27089;50.022;7.604;2023-02-23T08:04:53;19.60;;;13.37;;
41343;SDS011;27089;50.022;7.604;2023-02-23T08:07:20;18.43;;;12.23;;
41343;SDS011;27089;50.022;7.604;2023-02-23T08:09:47;19.20;;;13.03;;
41343;SDS011;27089;50.022;7.604;2023-02-23T08:12:14;21.03;;;13.23;;
41343;SDS011;27089;50.022;7.604;2023-02-23T08:14:41;18.30;;;12.33;;
41343;SDS011;27089;50.022;7.604;2023-02-23T08:17:08;18.57;;;11.70;;
41343;SDS011;27089;50.022;7.604;2023-02-23T08:19:38;16.63;;;11.97;;
41343;SDS011;27089;50.022;7.604;2023-02-23T08:22:05;18.27;;;11.70;;
41343;SDS011;27089;50.022;7.604;2023-02-23T08:24:32;16.33;;;10.17;;
41343;SDS011;27089;50.022;7.604;2023-02-23T08:27:00;14.27;;;9.77;;
41343;SDS011;27089;50.022;7.604;2023-02-23T08:29:27;15.37;;;10.40;;
41343;SDS011;27089;50.022;7.604;2023-02-23T08:31:55;14.30;;;9.50;;
41343;SDS011;27089;50.022;7.604;2023-02-23T08:34:21;13.27;;;9.33;;
41343;SDS011;27089;50.022;7.604;2023-02-23T08:36:50;14.87;;;9.20;;
41343;SDS011;27089;50.022;7.604;2023-02-23T08:39:18;13.80;;;9.20;;
41343;SDS011;27089;50.022;7.604;2023-02-23T08:41:45;12.77;;;9.67;;
41343;SDS011;27089;50.022;7.604;2023-02-23T08:44:12;11.87;;;8.80;;
41343;SDS011;27089;50.022;7.604;2023-02-23T08:46:39;12.93;;;8.77;;
41343;SDS011;27089;50.022;7.604;2023-02-23T08:49:06;12.87;;;8.63;;
41343;SDS011;27089;50.022;7.604;2023-02-23T08:51:34;13.90;;;8.43;;
41343;SDS011;27089;50.022;7.604;2023-02-23T08:54:03;13.57;;;8.77;;
41343;SDS011;27089;50.022;7.604;2023-02-23T08:56:34;11.60;;;8.00;;
41343;SDS011;27089;50.022;7.604;2023-02-23T08:59:00;12.17;;;8.00;;
41343;SDS011;27089;50.022;7.604;2023-02-23T09:01:27;13.27;;;8.83;;
41343;SDS011;27089;50.022;7.604;2023-02-23T09:03:54;13.07;;;8.60;;
41343;SDS011;27089;50.022;7.604;2023-02-23T09:06:22;12.20;;;8.67;;
41343;SDS011;27089;50.022;7.604;2023-02-23T09:08:50;11.87;;;8.53;;
41343;SDS011;27089;50.022;7.604;2023-02-23T09:11:19;12.53;;;8.13;;
41343;SDS011;27089;50.022;7.604;2023-02-23T09:13:46;12.33;;;8.37;;
41343;SDS011;27089;50.022;7.604;2023-02-23T09:16:13;11.73;;;8.60;;
41343;SDS011;27089;50.022;7.604;2023-02-23T09:18:41;12.40;;;8.67;;
41343;SDS011;27089;50.022;7.604;2023-02-23T09:21:12;12.80;;;8.67;;
41343;SDS011;27089;50.022;7.604;2023-02-23T09:23:42;13.43;;;8.43;;
41343;SDS011;27089;50.022;7.604;2023-02-23T09:26:10;11.43;;;8.63;;
41343;SDS011;27089;50.022;7.604;2023-02-23T09:28:39;11.60;;;8.83;;
41343;SDS011;27089;50.022;7.604;2023-02-23T09:31:06;12.03;;;8.97;;
41343;SDS011;27089;50.022;7.604;2023-02-23T09:33:34;13.30;;;10.23;;
41343;SDS011;27089;50.022;7.604;2023-02-23T09:36:03;13.40;;;9.40;;
41343;SDS011;27089;50.022;7.604;2023-02-23T09:38:31;11.40;;;9.27;;
41343;SDS011;27089;50.022;7.604;2023-02-23T09:40:58;11.20;;;9.17;;
41343;SDS011;27089;50.022;7.604;2023-02-23T09:43:26;12.40;;;9.20;;
41343;SDS011;27089;50.022;7.604;2023-02-23T09:46:01;12.33;;;9.20;;
41343;SDS011;27089;50.022;7.604;2023-02-23T09:48:36;12.00;;;9.37;;
41343;SDS011;27089;50.022;7.604;2023-02-23T09:51:03;11.63;;;8.53;;
41343;SDS011;27089;50.022;7.604;2023-02-23T09:53:35;12.30;;;8.73;;
41343;SDS011;27089;50.022;7.604;2023-02-23T09:56:06;11.17;;;8.63;;
41343;SDS011;27089;50.022;7.604;2023-02-23T09:58:39;9.87;;;8.67;;
41343;SDS011;27089;50.022;7.604;2023-02-23T10:01:20;13.17;;;8.83;;
41343;SDS011;27089;50.022;7.604;2023-02-23T10:04:15;12.90;;;9.47;;
41343;SDS011;27089;50.022;7.604;2023-02-23T10:06:49;10.00;;;8.37;;
41343;SDS011;27089;50.022;7.604;2023-02-23T10:09:25;10.90;;;8.37;;
41343;SDS011;27089;50.022;7.604;2023-02-23T10:12:01;11.43;;;8.13;;
41343;SDS011;27089;50.022;7.604;2023-02-23T10:14:49;11.57;;;8.73;;
41343;SDS011;27089;50.022;7.604;2023-02-23T10:17:32;12.83;;;9.23;;
41343;SDS011;27089;50.022;7.604;2023-02-23T10:20:08;11.73;;;8.67;;
41343;SDS011;27089;50.022;7.604;2023-02-23T10:22:45;10.70;;;8.90;;
41343;SDS011;27089;50.022;7.604;2023-02-23T10:25:14;12.33;;;8.53;;
41343;SDS011;27089;50.022;7.604;2023-02-23T10:27:44;14.47;;;9.00;;
41343;SDS011;27089;50.022;7.604;2023-02-23T10:30:17;12.57;;;9.33;;
41343;SDS011;27089;50.022;7.604;2023-02-23T10:32:49;11.13;;;9.13;;
41343;SDS011;27089;50.022;7.604;2023-02-23T10:35:20;11.00;;;9.10;;
41343;SDS011;27089;50.022;7.604;2023-02-23T10:37:49;11.47;;;9.13;;
41343;SDS011;27089;50.022;7.604;2023-02-23T10:40:19;13.13;;;9.57;;
41343;SDS011;27089;50.022;7.604;2023-02-23T10:42:47;13.03;;;9.80;;
41343;SDS011;27089;50.022;7.604;2023-02-23T10:45:15;14.07;;;10.07;;
41343;SDS011;27089;50.022;7.604;2023-02-23T10:47:47;13.27;;;9.80;;
41343;SDS011;27089;50.022;7.604;2023-02-23T10:50:20;11.43;;;9.80;;
41343;SDS011;27089;50.022;7.604;2023-02-23T10:52:51;12.87;;;9.80;;
41343;SDS011;27089;50.022;7.604;2023-02-23T10:55:23;11.97;;;9.10;;
41343;SDS011;27089;50.022;7.604;2023-02-23T10:57:59;12.67;;;9.60;;
41343;SDS011;27089;50.022;7.604;2023-02-23T11:00:29;11.00;;;8.83;;
41343;SDS011;27089;50.022;7.604;2023-02-23T11:03:00;12.53;;;9.43;;
41343;SDS011;27089;50.022;7.604;2023-02-23T11:05:32;13.10;;;9.10;;
41343;SDS011;27089;50.022;7.604;2023-02-23T11:08:17;11.20;;;8.93;;
41343;SDS011;27089;50.022;7.604;2023-02-23T11:10:59;10.33;;;8.57;;
41343;SDS011;27089;50.022;7.604;2023-02-23T11:13:30;13.53;;;9.17;;
41343;SDS011;27089;50.022;7.604;2023-02-23T11:16:01;11.37;;;8.27;;
41343;SDS011;27089;50.022;7.604;2023-02-23T11:18:32;10.50;;;7.93;;
41343;SDS011;27089;50.022;7.604;2023-02-23T11:20:59;10.90;;;7.83;;
41343;SDS011;27089;50.022;7.604;2023-02-23T11:23:27;13.80;;;7.90;;
41343;SDS011;27089;50.022;7.604;2023-02-23T11:25:57;12.93;;;8.50;;
41343;SDS011;27089;50.022;7.604;2023-02-23T11:28:28;11.00;;;8.03;;
41343;SDS011;27089;50.022;7.604;2023-02-23T11:30:59;12.30;;;7.03;;
41343;SDS011;27089;50.022;7.604;2023-02-23T11:33:29;9.90;;;7.20;;
41343;SDS011;27089;50.022;7.604;2023-02-23T11:36:11;8.70;;;6.70;;
41343;SDS011;27089;50.022;7.604;2023-02-23T11:38:40;8.60;;;6.50;;
41343;SDS011;27089;50.022;7.604;2023-02-23T11:41:16;9.97;;;6.47;;
41343;SDS011;27089;50.022;7.604;2023-02-23T11:43:49;7.83;;;6.03;;
41343;SDS011;27089;50.022;7.604;2023-02-23T11:46:18;8.73;;;6.77;;
41343;SDS011;27089;50.022;7.604;2023-02-23T11:48:49;9.57;;;6.80;;
41343;SDS011;27089;50.022;7.604;2023-02-23T11:51:23;9.77;;;7.17;;
41343;SDS011;27089;50.022;7.604;2023-02-23T11:53:52;12.17;;;8.43;;
41343;SDS011;27089;50.022;7.604;2023-02-23T11:56:21;14.33;;;9.80;;
41343;SDS011;27089;50.022;7.604;2023-02-23T11:58:50;13.60;;;9.83;;
41343;SDS011;27089;50.022;7.604;2023-02-23T12:01:20;10.13;;;8.37;;
41343;SDS011;27089;50.022;7.604;2023-02-23T12:04:01;10.63;;;8.67;;
41343;SDS011;27089;50.022;7.604;2023-02-23T12:06:29;11.40;;;8.57;;
41343;SDS011;27089;50.022;7.604;2023-02-23T12:09:00;11.53;;;9.13;;
41343;SDS011;27089;50.022;7.604;2023-02-23T12:11:32;11.77;;;9.47;;
41343;SDS011;27089;50.022;7.604;2023-02-23T12:14:03;16.23;;;9.93;;
41343;SDS011;27089;50.022;7.604;2023-02-23T12:16:37;12.27;;;9.30;;
41343;SDS011;27089;50.022;7.604;2023-02-23T12:19:10;13.47;;;9.00;;
41343;SDS011;27089;50.022;7.604;2023-02-23T12:21:49;12.43;;;8.60;;
41343;SDS011;27089;50.022;7.604;2023-02-23T12:24:24;13.13;;;9.23;;
41343;SDS011;27089;50.022;7.604;2023-02-23T12:26:59;12.93;;;8.97;;
41343;SDS011;27089;50.022;7.604;2023-02-23T12:29:38;12.13;;;8.90;;
41343;SDS011;27089;50.022;7.604;2023-02-23T12:32:16;14.07;;;10.43;;
41343;SDS011;27089;50.022;7.604;2023-02-23T12:34:48;14.17;;;9.90;;
41343;SDS011;27089;50.022;7.604;2023-02-23T12:37:24;13.10;;;9.53;;
41343;SDS011;27089;50.022;7.604;2023-02-23T12:40:03;13.87;;;9.80;;
41343;SDS011;27089;50.022;7.604;2023-02-23T12:42:39;13.87;;;9.30;;
41343;SDS011;27089;50.022;7.604;2023-02-23T12:45:14;14.77;;;8.77;;
41343;SDS011;27089;50.022;7.604;2023-02-23T12:47:47;10.90;;;8.47;;
41343;SDS011;27089;50.022;7.604;2023-02-23T12:50:22;11.93;;;8.47;;
41343;SDS011;27089;50.022;7.604;2023-02-23T12:52:53;9.97;;;8.00;;
41343;SDS011;27089;50.022;7.604;2023-02-23T12:55:28;12.27;;;8.60;;
41343;SDS011;27089;50.022;7.604;2023-02-23T12:58:04;14.17;;;8.13;;
41343;SDS011;27089;50.022;7.604;2023-02-23T13:00:49;11.83;;;8.33;;
41343;SDS011;27089;50.022;7.604;2023-02-23T13:03:32;9.67;;;8.00;;
41343;SDS011;27089;50.022;7.604;2023-02-23T13:06:12;10.40;;;7.27;;
41343;SDS011;27089;50.022;7.604;2023-02-23T13:08:55;11.57;;;8.60;;
41343;SDS011;27089;50.022;7.604;2023-02-23T13:11:46;11.07;;;8.63;;
41343;SDS011;27089;50.022;7.604;2023-02-23T13:14:27;11.87;;;7.50;;
41343;SDS011;27089;50.022;7.604;2023-02-23T13:17:00;10.63;;;7.67;;
41343;SDS011;27089;50.022;7.604;2023-02-23T13:19:34;13.53;;;7.70;;
41343;SDS011;27089;50.022;7.604;2023-02-23T13:22:10;10.87;;;7.27;;
41343;SDS011;27089;50.022;7.604;2023-02-23T13:24:50;12.00;;;7.47;;
41343;SDS011;27089;50.022;7.604;2023-02-23T13:27:22;8.80;;;6.83;;
41343;SDS011;27089;50.022;7.604;2023-02-23T13:29:55;10.67;;;7.83;;
41343;SDS011;27089;50.022;7.604;2023-02-23T13:32:24;11.60;;;8.20;;
41343;SDS011;27089;50.022;7.604;2023-02-23T13:34:56;10.63;;;7.57;;
41343;SDS011;27089;50.022;7.604;2023-02-23T13:37:27;13.37;;;7.60;;
41343;SDS011;27089;50.022;7.604;2023-02-23T13:40:01;10.47;;;8.13;;
41343;SDS011;27089;50.022;7.604;2023-02-23T13:42:41;9.93;;;7.87;;
41343;SDS011;27089;50.022;7.604;2023-02-23T13:45:21;11.53;;;8.13;;
41343;SDS011;27089;50.022;7.604;2023-02-23T13:47:58;11.83;;;7.60;;
41343;SDS011;27089;50.022;7.604;2023-02-23T13:50:30;10.50;;;7.33;;
41343;SDS011;27089;50.022;7.604;2023-02-23T13:53:14;9.93;;;7.37;;
41343;SDS011;27089;50.022;7.604;2023-02-23T13:55:57;9.97;;;6.97;;
41343;SDS011;27089;50.022;7.604;2023-02-23T13:58:27;9.50;;;7.40;;
41343;SDS011;27089;50.022;7.604;2023-02-23T14:01:03;11.63;;;8.10;;
41343;SDS011;27089;50.022;7.604;2023-02-23T14:03:40;12.63;;;7.87;;
41343;SDS011;27089;50.022;7.604;2023-02-23T14:06:13;10.03;;;7.67;;
41343;SDS011;27089;50.022;7.604;2023-02-23T14:08:45;14.27;;;7.80;;
41343;SDS011;27089;50.022;7.604;2023-02-23T14:11:28;11.73;;;8.63;;
41343;SDS011;27089;50.022;7.604;2023-02-23T14:14:14;10.40;;;7.50;;
41343;SDS011;27089;50.022;7.604;2023-02-23T14:20:33;11.93;;;7.83;;
41343;SDS011;27089;50.022;7.604;2023-02-23T14:26:13;10.03;;;7.03;;
41343;SDS011;27089;50.022;7.604;2023-02-23T14:29:16;11.63;;;7.33;;
41343;SDS011;27089;50.022;7.604;2023-02-23T14:31:55;12.60;;;7.20;;
41343;SDS011;27089;50.022;7.604;2023-02-23T14:34:45;12.57;;;7.87;;
41343;SDS011;27089;50.022;7.604;2023-02-23T14:37:23;9.90;;;6.70;;
41343;SDS011;27089;50.022;7.604;2023-02-23T14:39:52;11.07;;;7.77;;
41343;SDS011;27089;50.022;7.604;2023-02-23T14:42:24;9.27;;;7.47;;
41343;SDS011;27089;50.022;7.604;2023-02-23T14:44:53;10.10;;;7.60;;
41343;SDS011;27089;50.022;7.604;2023-02-23T14:47:21;9.93;;;7.30;;
41343;SDS011;27089;50.022;7.604;2023-02-23T14:49:53;12.07;;;7.13;;
41343;SDS011;27089;50.022;7.604;2023-02-23T14:52:22;13.80;;;7.20;;
41343;SDS011;27089;50.022;7.604;2023-02-23T14:55:12;10.17;;;6.53;;
41343;SDS011;27089;50.022;7.604;2023-02-23T14:57:47;11.03;;;7.63;;
41343;SDS011;27089;50.022;7.604;2023-02-23T15:00:17;11.13;;;7.37;;
41343;SDS011;27089;50.022;7.604;2023-02-23T15:02:56;11.37;;;7.10;;
41343;SDS011;27089;50.022;7.604;2023-02-23T15:05:26;9.20;;;7.27;;
41343;SDS011;27089;50.022;7.604;2023-02-23T15:07:58;9.93;;;6.80;;
41343;SDS011;27089;50.022;7.604;2023-02-23T15:10:28;9.73;;;7.10;;
41343;SDS011;27089;50.022;7.604;2023-02-23T15:12:59;11.13;;;8.00;;
41343;SDS011;27089;50.022;7.604;2023-02-23T15:15:33;11.13;;;7.03;;